Time;durP1;ratioP1;P1;durP2;ratioP2;P2;SDS_P1;SDS_P2;PMS_P1;PMS_P2;Temp;Humidity;BMP_temperature;BMP_pressure;BME280_temperature;BME280_humidity;BME280_pressure;Samples;Min_cycle;Max_cycle;Signal;HPM_P1;HPM_P2
2023/09/16 00:00:49;;;;;;;7.50;6.20;;;14.10;99.90;;;;;;5119329;28;20576;-61
2023/09/16 00:03:16;;;;;;;8.57;5.70;;;14.10;99.90;;;;;;5119930;28;20447;-60
2023/09/16 00:05:43;;;;;;;7.03;6.33;;;14.10;99.90;;;;;;5119724;28;20796;-60
2023/09/16 00:08:12;;;;;;;6.77;6.07;;;14.10;99.90;;;;;;5120145;28;20514;-60
2023/09/16 00:10:41;;;;;;;6.80;6.07;;;14.10;99.90;;;;;;5119626;28;20491;-60
2023/09/16 00:13:09;;;;;;;9.63;6.37;;;14.10;99.90;;;;;;5118883;28;20546;-60
2023/09/16 00:15:36;;;;;;;8.03;5.90;;;14.10;99.90;;;;;;5116518;28;20471;-60
2023/09/16 00:18:04;;;;;;;7.40;6.60;;;14.00;99.90;;;;;;5119512;28;20489;-60
2023/09/16 00:20:31;;;;;;;8.73;6.83;;;14.00;99.90;;;;;;5119661;28;20475;-60
2023/09/16 00:22:58;;;;;;;6.63;5.93;;;14.00;1.00;;;;;;5118912;28;20456;-60
2023/09/16 00:25:26;;;;;;;6.63;5.87;;;14.10;1.00;;;;;;5119234;28;20554;-60
2023/09/16 00:27:54;;;;;;;6.50;5.90;;;14.20;1.00;;;;;;5119409;28;20455;-60
2023/09/16 00:30:22;;;;;;;6.50;5.90;;;14.20;1.00;;;;;;5119159;28;20495;-60
2023/09/16 00:32:49;;;;;;;7.97;6.97;;;14.20;99.90;;;;;;5119473;28;20463;-60
2023/09/16 00:35:16;;;;;;;7.40;6.80;;;14.30;99.90;;;;;;5119360;28;20542;-60
2023/09/16 00:37:44;;;;;;;7.40;6.60;;;14.30;99.90;;;;;;5119052;28;20517;-60
2023/09/16 00:40:12;;;;;;;8.37;6.20;;;14.20;99.90;;;;;;5118534;28;20479;-60
2023/09/16 00:42:39;;;;;;;7.40;6.40;;;14.20;99.90;;;;;;5118864;28;20452;-60
2023/09/16 00:45:10;;;;;;;6.83;6.13;;;14.20;99.90;;;;;;5118899;28;20460;-60
2023/09/16 00:47:37;;;;;;;6.80;6.20;;;14.20;99.90;;;;;;5118871;28;20808;-59
2023/09/16 00:50:05;;;;;;;7.53;6.50;;;14.20;99.90;;;;;;5118421;28;20521;-60
2023/09/16 00:52:33;;;;;;;6.33;5.73;;;14.20;99.90;;;;;;5118998;28;20462;-60
2023/09/16 00:55:00;;;;;;;6.30;5.70;;;14.20;1.00;;;;;;5118223;28;20485;-61
2023/09/16 00:57:29;;;;;;;6.40;5.67;;;14.30;1.00;;;;;;5118774;28;20462;-60
2023/09/16 00:59:57;;;;;;;7.53;6.80;;;14.40;1.00;;;;;;5118681;28;20884;-60
2023/09/16 01:02:27;;;;;;;6.63;6.00;;;14.40;1.00;;;;;;5118445;28;20498;-60
2023/09/16 01:04:57;;;;;;;7.03;6.23;;;14.40;1.00;;;;;;5118340;28;20487;-60
2023/09/16 01:07:24;;;;;;;6.77;6.17;;;14.40;1.00;;;;;;5117668;28;20488;-60
2023/09/16 01:09:52;;;;;;;7.17;5.90;;;14.40;1.00;;;;;;5118458;28;20907;-60
2023/09/16 01:12:19;;;;;;;7.37;6.67;;;14.40;1.00;;;;;;5118519;28;20848;-60
2023/09/16 01:14:47;;;;;;;7.50;5.90;;;14.40;1.00;;;;;;5118759;28;20539;-60
2023/09/16 01:17:22;;;;;;;7.87;6.37;;;14.30;1.00;;;;;;5118129;28;20466;-61
2023/09/16 01:19:57;;;;;;;7.93;6.80;;;14.30;1.00;;;;;;5118240;28;20455;-60
2023/09/16 01:22:25;;;;;;;7.60;6.43;;;14.20;1.00;;;;;;5118789;28;20872;-61
2023/09/16 01:24:53;;;;;;;7.97;7.17;;;14.30;1.00;;;;;;5118189;28;20460;-60
2023/09/16 01:27:21;;;;;;;10.27;7.00;;;14.20;1.00;;;;;;5118007;28;20456;-61
2023/09/16 01:29:50;;;;;;;8.10;7.40;;;14.30;1.00;;;;;;5118519;28;20491;-60
2023/09/16 01:32:18;;;;;;;7.47;6.17;;;14.40;1.00;;;;;;5118163;28;20459;-60
2023/09/16 01:34:51;;;;;;;7.20;6.50;;;14.40;1.00;;;;;;5117897;28;20460;-61
2023/09/16 01:37:20;;;;;;;7.10;6.40;;;14.60;1.00;;;;;;5117993;28;20780;-60
2023/09/16 01:39:51;;;;;;;7.67;6.80;;;14.60;1.00;;;;;;5117947;28;20912;-60
2023/09/16 01:42:19;;;;;;;6.63;5.80;;;14.70;1.00;;;;;;5118163;28;20489;-60
2023/09/16 01:44:48;;;;;;;7.80;5.97;;;14.70;99.90;;;;;;5118295;28;20455;-60
2023/09/16 01:47:15;;;;;;;6.60;5.87;;;14.60;99.90;;;;;;5117337;28;20466;-60
2023/09/16 01:49:43;;;;;;;6.50;5.90;;;14.60;1.00;;;;;;5117950;28;20961;-60
2023/09/16 01:52:10;;;;;;;7.00;6.30;;;14.70;99.90;;;;;;5117906;28;20462;-60
2023/09/16 01:54:37;;;;;;;7.33;6.33;;;14.80;99.90;;;;;;5116510;28;20466;-60
2023/09/16 01:57:05;;;;;;;7.20;6.33;;;14.90;99.90;;;;;;5116268;28;20828;-60
2023/09/16 01:59:32;;;;;;;6.73;5.80;;;14.80;99.90;;;;;;5116166;28;20856;-60
2023/09/16 02:02:00;;;;;;;7.37;5.90;;;14.80;1.00;;;;;;5115946;28;20947;-60
2023/09/16 02:04:27;;;;;;;7.50;5.70;;;14.80;1.00;;;;;;5116008;28;20558;-59
2023/09/16 02:06:55;;;;;;;8.13;5.87;;;14.90;1.00;;;;;;5115447;28;20460;-60
2023/09/16 02:09:22;;;;;;;6.80;6.10;;;14.90;99.90;;;;;;5117202;28;20462;-60
2023/09/16 02:11:49;;;;;;;5.90;5.33;;;14.90;1.00;;;;;;5117608;28;20830;-60
2023/09/16 02:14:19;;;;;;;7.10;6.50;;;15.00;1.00;;;;;;5117395;28;20872;-60
2023/09/16 02:16:46;;;;;;;8.03;6.67;;;15.00;1.00;;;;;;5118164;28;20512;-60
2023/09/16 02:19:15;;;;;;;6.83;6.00;;;15.10;1.00;;;;;;5121675;28;20490;-60
2023/09/16 02:21:42;;;;;;;6.60;6.00;;;15.10;1.00;;;;;;5121783;28;20896;-60
2023/09/16 02:24:09;;;;;;;6.60;6.00;;;15.10;1.00;;;;;;5121386;28;20836;-60
2023/09/16 02:26:36;;;;;;;6.73;5.63;;;15.10;1.00;;;;;;5121961;28;20456;-61
2023/09/16 02:29:04;;;;;;;7.27;6.00;;;15.10;99.90;;;;;;5121490;28;20461;-60
2023/09/16 02:31:31;;;;;;;7.27;5.97;;;15.20;99.90;;;;;;5122016;28;20521;-60
2023/09/16 02:33:59;;;;;;;18.80;6.63;;;15.20;99.90;;;;;;5121674;28;20904;-61
2023/09/16 02:36:28;;;;;;;6.57;5.40;;;15.20;99.90;;;;;;5121804;28;20743;-60
2023/09/16 02:38:55;;;;;;;6.60;6.00;;;15.20;99.90;;;;;;5121205;28;20591;-60
2023/09/16 02:41:22;;;;;;;6.37;5.77;;;15.20;99.90;;;;;;5121294;28;20537;-60
2023/09/16 02:43:50;;;;;;;7.23;6.10;;;15.20;99.90;;;;;;5121094;28;20510;-60
2023/09/16 02:46:17;;;;;;;6.27;5.67;;;15.20;99.90;;;;;;5121662;28;20486;-60
2023/09/16 02:48:44;;;;;;;6.20;5.60;;;15.20;99.90;;;;;;5121442;28;20946;-60
2023/09/16 02:51:11;;;;;;;6.60;6.00;;;15.20;99.90;;;;;;5120093;28;20547;-60
2023/09/16 02:53:40;;;;;;;6.83;6.23;;;15.10;99.90;;;;;;5120986;28;20551;-60
2023/09/16 02:56:09;;;;;;;6.83;6.23;;;15.10;99.90;;;;;;5121055;28;20558;-61
2023/09/16 02:58:36;;;;;;;7.10;6.40;;;15.00;99.90;;;;;;5121399;28;20499;-61
2023/09/16 03:01:10;;;;;;;6.80;6.13;;;15.00;99.90;;;;;;5121182;28;20806;-60
2023/09/16 03:03:37;;;;;;;9.13;6.20;;;15.00;99.90;;;;;;5121005;28;20455;-60
2023/09/16 03:06:05;;;;;;;7.00;6.00;;;15.00;99.90;;;;;;5121150;28;20461;-60
2023/09/16 03:08:32;;;;;;;6.63;6.03;;;15.00;99.90;;;;;;5121016;28;20735;-60
2023/09/16 03:11:03;;;;;;;7.43;6.17;;;15.10;99.90;;;;;;5120925;28;20534;-60
2023/09/16 03:13:30;;;;;;;6.13;5.63;;;15.00;99.90;;;;;;5121115;28;20868;-60
2023/09/16 03:16:17;;;;;;;7.00;6.10;;;15.00;99.90;;;;;;5120926;28;20486;-60
2023/09/16 03:18:46;;;;;;;7.27;6.57;;;15.00;99.90;;;;;;5121250;28;20455;-60
2023/09/16 03:21:14;;;;;;;8.93;6.30;;;15.00;99.90;;;;;;5120683;28;20462;-60
2023/09/16 03:23:41;;;;;;;7.13;6.43;;;15.00;99.90;;;;;;5120710;28;20455;-60
2023/09/16 03:26:10;;;;;;;6.90;6.20;;;15.00;99.90;;;;;;5120501;28;20466;-60
2023/09/16 03:28:41;;;;;;;6.63;6.03;;;15.10;99.90;;;;;;5120300;28;20463;-61
2023/09/16 03:31:08;;;;;;;7.90;6.30;;;15.00;99.90;;;;;;5120541;28;20492;-61
2023/09/16 03:33:36;;;;;;;7.83;7.03;;;15.00;99.90;;;;;;5120708;28;20488;-60
2023/09/16 03:36:05;;;;;;;7.23;6.53;;;15.00;99.90;;;;;;5120671;28;20491;-61
2023/09/16 03:38:34;;;;;;;6.50;5.90;;;15.00;99.90;;;;;;5102396;28;20457;-61
2023/09/16 03:41:02;;;;;;;6.17;5.57;;;15.00;1.00;;;;;;5085889;28;20868;-61
2023/09/16 03:43:31;;;;;;;7.23;6.63;;;15.00;1.00;;;;;;5079420;28;20461;-61
2023/09/16 03:45:58;;;;;;;7.00;5.90;;;15.10;99.90;;;;;;5079470;28;20464;-61
2023/09/16 03:48:25;;;;;;;6.30;5.70;;;15.10;99.90;;;;;;5079603;28;20599;-61
2023/09/16 03:50:52;;;;;;;6.57;5.87;;;15.10;99.90;;;;;;5079534;28;20470;-61
2023/09/16 03:53:22;;;;;;;8.20;6.80;;;15.10;99.90;;;;;;5079800;28;20483;-60
2023/09/16 03:55:49;;;;;;;6.47;5.87;;;15.10;99.90;;;;;;5079025;28;20465;-61
2023/09/16 03:58:16;;;;;;;7.07;6.47;;;15.10;99.90;;;;;;5079322;28;20461;-61
2023/09/16 04:00:45;;;;;;;7.23;6.27;;;15.10;99.90;;;;;;5079578;28;20457;-61
2023/09/16 04:03:12;;;;;;;9.10;7.10;;;15.10;99.90;;;;;;5079429;28;20457;-61
2023/09/16 04:05:39;;;;;;;6.40;5.80;;;15.10;1.00;;;;;;5078901;28;20461;-61
2023/09/16 04:08:08;;;;;;;7.10;6.40;;;15.00;1.00;;;;;;5079231;28;20453;-61
2023/09/16 04:10:35;;;;;;;5.80;5.30;;;14.90;34.20;;;;;;5078998;28;20485;-61
2023/09/16 04:13:02;;;;;;;6.47;5.80;;;14.90;99.90;;;;;;5078804;28;20564;-61
2023/09/16 04:15:30;;;;;;;6.57;5.97;;;14.90;99.90;;;;;;5078273;28;20464;-61
2023/09/16 04:17:58;;;;;;;6.97;6.17;;;14.90;99.90;;;;;;5078770;28;20462;-61
2023/09/16 04:20:25;;;;;;;6.57;5.90;;;15.00;99.90;;;;;;5078833;28;20457;-60
2023/09/16 04:22:52;;;;;;;11.37;5.57;;;14.90;5.30;;;;;;5078855;28;20894;-61
2023/09/16 04:25:20;;;;;;;7.10;6.40;;;14.90;99.90;;;;;;5078623;28;20882;-61
2023/09/16 04:27:47;;;;;;;6.37;5.77;;;14.80;99.90;;;;;;5078456;28;20468;-62
2023/09/16 04:30:14;;;;;;;6.37;5.77;;;14.80;99.90;;;;;;5079011;28;20468;-61
2023/09/16 04:32:41;;;;;;;6.70;6.00;;;14.70;1.00;;;;;;5078572;28;20453;-61
2023/09/16 04:35:10;;;;;;;6.23;5.63;;;14.70;1.00;;;;;;5078430;28;20464;-61
2023/09/16 04:37:38;;;;;;;7.13;6.43;;;14.70;1.00;;;;;;5078406;28;20472;-60
2023/09/16 04:40:10;;;;;;;6.37;5.77;;;14.60;65.90;;;;;;5077675;28;20960;-61
2023/09/16 04:42:38;;;;;;;7.67;6.40;;;14.60;54.90;;;;;;5078468;28;20522;-61
2023/09/16 04:45:06;;;;;;;8.40;7.60;;;14.50;99.90;;;;;;5077778;28;20816;-61
2023/09/16 04:47:35;;;;;;;8.37;6.80;;;14.50;1.00;;;;;;5078184;28;20453;-61
2023/09/16 04:50:02;;;;;;;7.43;6.70;;;14.60;99.90;;;;;;5078092;28;20465;-61
2023/09/16 04:52:30;;;;;;;7.10;6.40;;;14.60;99.90;;;;;;5078126;28;20489;-61
2023/09/16 04:54:57;;;;;;;7.17;6.07;;;14.50;99.90;;;;;;5077952;28;20745;-61
2023/09/16 04:57:25;;;;;;;6.67;5.97;;;14.50;99.90;;;;;;5077919;28;20909;-60
2023/09/16 04:59:52;;;;;;;6.53;5.93;;;14.50;99.90;;;;;;5077964;28;20468;-61
2023/09/16 05:02:27;;;;;;;7.07;6.47;;;14.50;99.90;;;;;;5050553;28;20828;-62
2023/09/16 05:04:54;;;;;;;7.33;6.10;;;14.40;1.00;;;;;;5050966;28;20458;-61
2023/09/16 05:07:21;;;;;;;7.20;6.50;;;14.40;1.00;;;;;;5050562;28;20466;-62
2023/09/16 05:09:48;;;;;;;8.13;7.23;;;14.40;1.00;;;;;;5050697;28;20901;-62
2023/09/16 05:12:16;;;;;;;7.03;6.37;;;14.40;1.00;;;;;;5050391;28;20812;-61
2023/09/16 05:14:43;;;;;;;8.63;6.20;;;14.40;1.00;;;;;;5049928;28;20806;-62
2023/09/16 05:17:10;;;;;;;6.80;6.20;;;14.40;1.00;;;;;;5050771;28;20816;-62
2023/09/16 05:19:39;;;;;;;8.70;6.67;;;14.30;1.00;;;;;;5050881;28;20545;-61
2023/09/16 05:22:06;;;;;;;6.80;6.20;;;14.40;1.00;;;;;;5050587;28;20512;-61
2023/09/16 05:24:33;;;;;;;7.30;6.60;;;14.40;1.00;;;;;;5051188;28;20487;-62
2023/09/16 05:27:01;;;;;;;7.33;5.73;;;14.40;1.00;;;;;;5050843;28;20513;-62
2023/09/16 05:29:29;;;;;;;10.87;7.33;;;14.40;1.00;;;;;;5050292;28;20561;-61
2023/09/16 05:31:56;;;;;;;8.30;7.50;;;14.40;1.00;;;;;;5050464;28;20455;-61
2023/09/16 05:34:24;;;;;;;7.43;6.73;;;14.50;1.00;;;;;;5050532;28;20505;-61
2023/09/16 05:36:52;;;;;;;6.77;6.07;;;14.50;1.00;;;;;;5050681;28;20510;-62
2023/09/16 05:39:19;;;;;;;8.53;6.80;;;14.50;1.00;;;;;;5050630;28;20545;-61
2023/09/16 05:41:48;;;;;;;6.87;6.27;;;14.60;1.00;;;;;;5050273;28;20862;-62
2023/09/16 05:44:19;;;;;;;8.80;6.77;;;14.60;99.90;;;;;;5050589;28;20494;-60
2023/09/16 05:46:48;;;;;;;8.00;7.30;;;14.70;99.90;;;;;;5050539;28;20470;-60
2023/09/16 05:49:15;;;;;;;7.53;6.83;;;14.70;99.90;;;;;;5050378;28;20477;-60
2023/09/16 05:51:42;;;;;;;7.20;6.50;;;14.80;99.90;;;;;;5049121;28;20459;-60
2023/09/16 05:54:12;;;;;;;8.13;6.80;;;14.90;99.90;;;;;;5048576;28;20474;-60
2023/09/16 05:56:42;;;;;;;7.30;6.60;;;14.90;99.90;;;;;;5049031;28;20500;-60
2023/09/16 05:59:09;;;;;;;8.50;7.20;;;15.00;99.90;;;;;;5046790;28;20475;-60
2023/09/16 06:01:37;;;;;;;7.23;6.53;;;15.10;99.90;;;;;;5028597;28;20572;-60
2023/09/16 06:04:04;;;;;;;7.67;6.90;;;15.10;1.00;;;;;;5029393;28;20516;-60
2023/09/16 06:06:31;;;;;;;8.17;7.03;;;15.30;1.00;;;;;;5029072;28;20493;-60
2023/09/16 06:08:59;;;;;;;7.77;6.90;;;15.40;1.00;;;;;;5029565;28;20482;-60
2023/09/16 06:11:28;;;;;;;7.57;6.80;;;15.40;1.00;;;;;;5028933;28;20554;-61
2023/09/16 06:13:56;;;;;;;7.33;6.63;;;15.50;1.00;;;;;;5018583;28;20464;-61
2023/09/16 06:16:23;;;;;;;7.30;6.57;;;15.60;99.90;;;;;;5036472;28;20491;-60
2023/09/16 06:18:50;;;;;;;6.87;6.27;;;15.80;70.60;;;;;;5036648;28;20830;-60
2023/09/16 06:21:18;;;;;;;6.27;5.67;;;15.80;99.90;;;;;;5036830;28;20491;-60
2023/09/16 06:23:46;;;;;;;7.17;6.47;;;16.00;1.00;;;;;;5036568;28;20469;-61
2023/09/16 06:26:13;;;;;;;7.17;6.47;;;16.10;1.00;;;;;;5036462;28;20528;-60
2023/09/16 06:28:43;;;;;;;7.63;6.80;;;16.30;1.00;;;;;;5036576;28;20943;-60
2023/09/16 06:31:10;;;;;;;6.07;5.47;;;16.40;1.00;;;;;;5036558;28;20458;-60
2023/09/16 06:33:37;;;;;;;6.10;5.50;;;16.50;1.00;;;;;;5033018;28;20476;-60
2023/09/16 06:36:05;;;;;;;7.17;6.47;;;16.60;99.90;;;;;;5016464;28;20551;-60
2023/09/16 06:38:33;;;;;;;7.17;6.47;;;16.80;99.90;;;;;;5015477;28;20460;-60
2023/09/16 06:41:00;;;;;;;6.37;5.80;;;17.00;99.90;;;;;;5014953;28;20816;-60
2023/09/16 06:43:27;;;;;;;6.83;6.20;;;17.20;99.90;;;;;;5014263;28;20499;-60
2023/09/16 06:45:56;;;;;;;7.13;6.37;;;17.40;99.90;;;;;;5014792;28;20492;-60
2023/09/16 06:48:23;;;;;;;6.10;5.50;;;17.70;99.90;;;;;;5014443;28;20920;-60
2023/09/16 06:50:52;;;;;;;6.73;5.53;;;17.90;99.90;;;;;;5031501;28;20471;-60
2023/09/16 06:53:19;;;;;;;7.27;6.60;;;17.90;1.00;;;;;;5034944;28;20459;-60
2023/09/16 06:55:48;;;;;;;5.90;5.30;;;18.10;1.00;;;;;;5034163;28;20469;-60
2023/09/16 06:58:15;;;;;;;6.17;5.57;;;18.30;1.00;;;;;;5034300;28;20896;-60
2023/09/16 07:00:43;;;;;;;6.80;6.20;;;18.60;1.00;;;;;;5034164;28;20585;-60
2023/09/16 07:03:11;;;;;;;5.43;4.77;;;18.90;1.00;;;;;;5033902;28;20766;-60
2023/09/16 07:05:39;;;;;;;6.30;5.70;;;19.00;1.00;;;;;;5034141;28;20904;-60
2023/09/16 07:08:07;;;;;;;5.67;4.70;;;18.90;1.00;;;;;;5032346;28;20528;-59
2023/09/16 07:10:34;;;;;;;6.43;5.80;;;19.00;1.00;;;;;;5016500;28;20751;-60
2023/09/16 07:13:01;;;;;;;5.70;5.20;;;19.30;1.00;;;;;;5014285;28;20760;-60
2023/09/16 07:15:29;;;;;;;5.43;4.93;;;19.30;1.00;;;;;;5017403;28;21028;-60
2023/09/16 07:17:56;;;;;;;5.90;5.30;;;19.50;1.00;;;;;;5034522;28;20463;-60
2023/09/16 07:20:25;;;;;;;5.77;5.27;;;19.60;99.90;;;;;;5034414;28;20491;-60
2023/09/16 07:22:55;;;;;;;5.47;4.97;;;19.80;99.90;;;;;;5033284;28;20509;-60
2023/09/16 07:25:22;;;;;;;6.17;4.70;;;20.20;1.00;;;;;;5030813;28;20487;-60
2023/09/16 07:27:50;;;;;;;5.83;5.10;;;20.40;1.00;;;;;;5032051;28;20553;-60
2023/09/16 07:30:17;;;;;;;5.00;4.60;;;20.70;99.90;;;;;;5032165;28;20455;-60
2023/09/16 07:32:44;;;;;;;4.40;4.00;;;21.00;99.90;;;;;;5032180;28;20772;-60
2023/09/16 07:35:12;;;;;;;4.50;4.10;;;21.10;99.90;;;;;;5032556;28;20455;-59
2023/09/16 07:37:41;;;;;;;5.80;5.20;;;21.40;99.90;;;;;;5031031;28;20502;-60
2023/09/16 07:40:10;;;;;;;5.73;5.20;;;21.60;99.90;;;;;;5034390;28;20837;-59
2023/09/16 07:42:37;;;;;;;4.90;4.50;;;21.60;99.90;;;;;;5034647;28;20494;-59
2023/09/16 07:45:05;;;;;;;5.20;4.70;;;21.90;99.90;;;;;;5034677;28;20912;-60
2023/09/16 07:47:33;;;;;;;5.93;5.43;;;22.00;99.90;;;;;;5034716;28;20463;-60
2023/09/16 07:50:01;;;;;;;5.63;5.17;;;22.30;99.90;;;;;;5034108;28;20471;-60
2023/09/16 07:52:29;;;;;;;5.67;5.03;;;22.50;99.90;;;;;;5035203;28;20487;-60
2023/09/16 07:54:59;;;;;;;5.70;5.30;;;22.70;99.90;;;;;;5035073;28;20896;-60
2023/09/16 07:57:28;;;;;;;5.60;5.10;;;22.80;99.90;;;;;;5034663;28;20520;-61
2023/09/16 07:59:55;;;;;;;6.03;5.53;;;22.90;99.90;;;;;;5034702;28;20500;-60
2023/09/16 08:02:22;;;;;;;5.47;5.03;;;23.10;99.90;;;;;;5034624;28;20824;-60
2023/09/16 08:04:50;;;;;;;7.60;5.33;;;23.20;99.90;;;;;;5035088;28;20459;-60
2023/09/16 08:07:17;;;;;;;5.90;5.40;;;23.20;99.90;;;;;;5034915;28;20455;-60
2023/09/16 08:09:45;;;;;;;5.23;4.73;;;23.10;99.90;;;;;;5034696;28;20512;-60
2023/09/16 08:12:14;;;;;;;6.07;5.57;;;23.00;99.90;;;;;;5035159;28;20538;-60
2023/09/16 08:14:41;;;;;;;5.43;4.90;;;23.10;99.90;;;;;;5035002;28;20459;-58
2023/09/16 08:17:09;;;;;;;8.23;4.50;;;23.20;99.90;;;;;;5034802;28;20459;-57
2023/09/16 08:19:37;;;;;;;6.20;4.70;;;23.30;99.90;;;;;;5034136;28;20558;-57
2023/09/16 08:22:07;;;;;;;5.20;4.80;;;23.60;99.90;;;;;;5034412;28;21015;-58
2023/09/16 08:24:35;;;;;;;5.40;5.00;;;23.80;99.90;;;;;;5034656;28;20456;-58
2023/09/16 08:27:02;;;;;;;5.53;4.90;;;24.00;99.90;;;;;;5034775;28;20459;-57
2023/09/16 08:29:31;;;;;;;5.93;5.40;;;24.10;99.90;;;;;;5032882;28;20463;-61
2023/09/16 08:31:58;;;;;;;5.77;5.27;;;24.40;99.90;;;;;;5034314;28;20553;-60
2023/09/16 08:34:26;;;;;;;5.23;4.73;;;24.40;99.90;;;;;;5034748;28;20512;-58
2023/09/16 08:36:53;;;;;;;7.70;5.00;;;24.60;99.90;;;;;;5033804;28;20561;-58
2023/09/16 08:39:21;;;;;;;5.27;4.77;;;24.70;99.90;;;;;;5034134;28;20466;-60
2023/09/16 08:41:53;;;;;;;6.93;5.73;;;24.80;99.90;;;;;;5033969;28;20494;-57
2023/09/16 08:44:23;;;;;;;8.20;5.33;;;24.80;99.90;;;;;;5034010;28;20458;-58
2023/09/16 08:47:00;;;;;;;5.30;4.87;;;24.80;99.90;;;;;;5033208;28;20519;-58
2023/09/16 08:49:29;;;;;;;6.40;5.90;;;25.10;99.90;;;;;;5033092;28;20478;-57
2023/09/16 08:52:01;;;;;;;5.67;5.17;;;25.20;99.90;;;;;;5030817;28;20465;-58
2023/09/16 08:54:33;;;;;;;9.27;6.10;;;25.30;99.90;;;;;;5033868;28;20507;-58
2023/09/16 08:57:02;;;;;;;7.90;6.03;;;25.40;99.90;;;;;;5033811;28;20501;-58
2023/09/16 08:59:31;;;;;;;7.57;6.87;;;25.70;99.90;;;;;;5034138;28;20463;-58
2023/09/16 09:02:01;;;;;;;7.27;6.47;;;25.90;99.90;;;;;;5035751;28;20584;-58
2023/09/16 09:04:29;;;;;;;8.40;5.63;;;25.90;99.90;;;;;;5032170;28;20520;-59
2023/09/16 09:06:58;;;;;;;5.73;5.23;;;25.90;99.90;;;;;;5033814;28;20759;-58
2023/09/16 09:09:25;;;;;;;7.90;6.30;;;26.00;99.90;;;;;;5033781;28;20917;-58
2023/09/16 09:11:54;;;;;;;8.40;6.10;;;26.00;99.90;;;;;;5033795;28;20506;-58
2023/09/16 09:14:23;;;;;;;5.73;5.23;;;26.30;99.90;;;;;;5034167;28;20495;-58
2023/09/16 09:16:52;;;;;;;7.20;6.20;;;26.30;99.90;;;;;;5034119;28;20573;-59
2023/09/16 09:19:22;;;;;;;6.30;5.70;;;26.40;99.90;;;;;;5034261;28;20455;-59
2023/09/16 09:21:51;;;;;;;6.60;6.00;;;26.70;99.90;;;;;;5033655;28;20527;-59
2023/09/16 09:24:19;;;;;;;6.30;5.80;;;27.00;99.90;;;;;;5033666;28;20459;-59
2023/09/16 09:26:46;;;;;;;5.57;5.17;;;27.20;99.90;;;;;;5033272;28;20940;-59
2023/09/16 09:29:17;;;;;;;5.80;5.40;;;27.50;99.90;;;;;;5034088;28;20460;-59
2023/09/16 09:31:45;;;;;;;5.93;5.53;;;27.70;99.90;;;;;;5029806;28;20516;-59
2023/09/16 09:34:19;;;;;;;6.10;5.60;;;27.90;99.90;;;;;;5031997;28;20551;-59
2023/09/16 09:36:48;;;;;;;5.87;5.47;;;28.10;99.90;;;;;;5031315;28;20463;-59
2023/09/16 09:39:16;;;;;;;5.67;5.17;;;28.30;99.90;;;;;;5033703;28;20574;-59
2023/09/16 09:41:45;;;;;;;6.83;5.67;;;28.40;99.90;;;;;;5032685;28;20910;-59
2023/09/16 09:44:14;;;;;;;6.40;5.90;;;28.50;99.90;;;;;;5033642;28;20516;-60
2023/09/16 09:46:41;;;;;;;6.13;5.60;;;28.60;99.90;;;;;;5033842;28;20884;-59
2023/09/16 09:49:12;;;;;;;11.00;6.80;;;28.60;99.90;;;;;;5035740;28;20943;-58
2023/09/16 09:51:42;;;;;;;10.50;6.97;;;28.70;99.90;;;;;;5035410;28;20817;-58
2023/09/16 09:54:11;;;;;;;6.30;5.60;;;28.70;99.90;;;;;;5035755;28;20743;-59
2023/09/16 09:56:39;;;;;;;6.20;5.70;;;28.90;99.90;;;;;;5036241;28;20554;-59
2023/09/16 09:59:06;;;;;;;7.87;6.83;;;28.80;99.90;;;;;;5036324;28;20554;-59
2023/09/16 10:01:34;;;;;;;6.37;5.87;;;28.60;99.90;;;;;;5035188;28;20831;-59
2023/09/16 10:04:03;;;;;;;6.13;5.23;;;28.60;99.90;;;;;;5036043;28;20558;-59
2023/09/16 10:06:31;;;;;;;5.80;5.30;;;28.60;99.90;;;;;;5037020;28;20470;-59
2023/09/16 10:08:58;;;;;;;6.83;6.33;;;28.70;99.90;;;;;;5036681;28;20463;-59
2023/09/16 10:11:32;;;;;;;5.63;5.17;;;28.70;99.90;;;;;;5036439;28;20465;-59
2023/09/16 10:14:00;;;;;;;5.43;5.03;;;28.90;99.90;;;;;;5036641;28;20941;-58
2023/09/16 10:16:28;;;;;;;13.23;5.70;;;29.00;99.90;;;;;;5036700;28;20959;-59
2023/09/16 10:18:55;;;;;;;6.80;6.30;;;29.00;99.90;;;;;;5036684;28;20515;-59
2023/09/16 10:21:26;;;;;;;5.87;5.40;;;28.90;99.90;;;;;;5035280;28;20459;-58
2023/09/16 10:23:53;;;;;;;5.77;5.37;;;29.10;99.90;;;;;;5036460;28;20538;-59
2023/09/16 10:26:22;;;;;;;7.33;6.23;;;29.10;99.90;;;;;;5036381;28;20463;-58
2023/09/16 10:28:54;;;;;;;6.50;5.90;;;29.20;99.90;;;;;;5036499;28;20469;-59
2023/09/16 10:31:23;;;;;;;5.47;5.07;;;29.40;99.90;;;;;;5035957;28;20495;-59
2023/09/16 10:33:50;;;;;;;6.60;6.00;;;29.40;99.90;;;;;;5036176;28;20459;-59
2023/09/16 10:36:20;;;;;;;6.10;5.70;;;29.40;99.90;;;;;;5036327;28;20967;-59
2023/09/16 10:38:50;;;;;;;6.33;5.87;;;29.60;99.90;;;;;;5036394;28;20460;-58
2023/09/16 10:41:20;;;;;;;6.07;5.47;;;29.70;99.90;;;;;;5036375;28;20751;-59
2023/09/16 10:43:48;;;;;;;6.87;6.27;;;29.90;99.90;;;;;;5035883;28;20517;-58
2023/09/16 10:46:18;;;;;;;6.70;6.20;;;30.10;99.90;;;;;;5036153;28;20549;-59
2023/09/16 10:48:45;;;;;;;6.70;6.10;;;30.10;99.90;;;;;;5036072;28;20463;-59
2023/09/16 10:51:22;;;;;;;6.50;6.00;;;30.20;99.90;;;;;;5034276;28;20471;-58
2023/09/16 10:53:57;;;;;;;6.33;5.93;;;30.20;99.90;;;;;;5015507;28;20463;-59
2023/09/16 10:56:29;;;;;;;6.27;5.77;;;30.20;99.90;;;;;;5015104;28;20546;-58
2023/09/16 10:59:01;;;;;;;6.93;6.33;;;30.00;99.90;;;;;;5014561;28;20455;-59
2023/09/16 11:01:36;;;;;;;6.13;5.63;;;30.00;99.90;;;;;;5018321;28;20601;-59
2023/09/16 11:04:09;;;;;;;6.23;5.80;;;30.30;99.90;;;;;;5015468;28;20502;-58
2023/09/16 11:06:37;;;;;;;7.43;6.60;;;30.40;99.90;;;;;;5014528;28;20460;-59
2023/09/16 11:09:06;;;;;;;6.13;5.73;;;30.50;99.90;;;;;;5026841;28;20895;-58
2023/09/16 11:11:34;;;;;;;7.23;6.73;;;30.50;99.90;;;;;;5035273;28;20459;-58
2023/09/16 11:14:02;;;;;;;6.50;6.00;;;30.60;99.90;;;;;;5071375;27;20529;-59
2023/09/16 11:16:44;;;;;;;5.90;5.40;;;30.20;99.90;;;;;;5035075;28;20958;-60
2023/09/16 11:19:15;;;;;;;7.07;6.47;;;30.70;99.90;;;;;;5034783;28;20472;-58
2023/09/16 11:21:44;;;;;;;6.00;5.60;;;30.60;99.90;;;;;;5059072;27;20547;-59
2023/09/16 11:24:13;;;;;;;6.17;5.67;;;30.80;99.90;;;;;;5055390;27;20804;-58
2023/09/16 11:26:41;;;;;;;6.43;5.83;;;30.80;99.90;;;;;;5028162;28;20531;-59
2023/09/16 11:29:18;;;;;;;7.60;5.80;;;30.90;99.90;;;;;;5034321;28;20519;-59
2023/09/16 11:31:48;;;;;;;5.90;5.50;;;30.90;99.90;;;;;;5034176;28;20923;-59
2023/09/16 11:34:18;;;;;;;6.10;5.60;;;30.70;99.90;;;;;;5034187;28;20921;-59
2023/09/16 11:36:49;;;;;;;6.87;6.37;;;30.80;99.90;;;;;;5033896;28;20459;-59
2023/09/16 11:39:18;;;;;;;6.43;5.93;;;30.90;99.90;;;;;;5033945;28;20728;-59
2023/09/16 11:41:46;;;;;;;7.67;5.80;;;30.90;99.90;;;;;;5031745;28;20474;-59
2023/09/16 11:44:14;;;;;;;6.43;5.80;;;31.20;99.90;;;;;;5033952;28;20949;-59
2023/09/16 11:46:45;;;;;;;6.83;6.23;;;31.30;99.90;;;;;;5033517;28;20462;-59
2023/09/16 11:49:16;;;;;;;6.27;5.77;;;31.30;99.90;;;;;;5033666;28;20575;-59
2023/09/16 11:51:50;;;;;;;6.73;6.13;;;31.30;99.90;;;;;;5033353;28;20490;-59
2023/09/16 11:54:17;;;;;;;6.93;6.33;;;31.40;99.90;;;;;;5032703;28;20492;-60
2023/09/16 11:56:45;;;;;;;5.90;5.40;;;31.60;99.90;;;;;;5016154;28;20479;-59
2023/09/16 11:59:13;;;;;;;5.97;5.57;;;31.90;99.90;;;;;;5019629;28;20538;-59
2023/09/16 12:01:43;;;;;;;7.33;6.57;;;32.00;99.90;;;;;;5031628;28;20815;-58
2023/09/16 12:04:15;;;;;;;6.77;6.30;;;31.90;99.90;;;;;;5030361;28;20491;-58
2023/09/16 12:06:45;;;;;;;5.87;5.47;;;31.90;99.90;;;;;;5025384;28;20465;-59
2023/09/16 12:09:17;;;;;;;6.70;6.20;;;31.90;99.90;;;;;;5034302;27;20485;-59
2023/09/16 12:11:49;;;;;;;6.20;5.60;;;31.90;99.90;;;;;;5015817;28;20555;-59
2023/09/16 12:14:17;;;;;;;5.30;4.90;;;31.70;99.90;;;;;;5013992;28;20447;-59
2023/09/16 12:16:44;;;;;;;6.70;6.20;;;31.70;99.90;;;;;;5013550;28;20516;-59
2023/09/16 12:19:13;;;;;;;6.53;6.07;;;31.80;99.90;;;;;;5015649;28;20472;-59
2023/09/16 12:21:48;;;;;;;6.33;5.73;;;32.00;99.90;;;;;;5022703;28;20463;-58
2023/09/16 12:24:23;;;;;;;6.67;6.20;;;32.10;99.90;;;;;;5037999;27;20498;-60
2023/09/16 12:26:51;;;;;;;6.30;5.80;;;32.00;99.90;;;;;;5029712;28;20463;-59
2023/09/16 12:29:18;;;;;;;6.60;6.10;;;31.30;99.90;;;;;;5014647;28;20467;-59
2023/09/16 12:31:47;;;;;;;7.03;6.50;;;31.40;99.90;;;;;;5014015;28;20475;-59
2023/09/16 12:34:21;;;;;;;5.60;5.20;;;31.70;99.90;;;;;;5013647;28;20825;-59
2023/09/16 12:36:53;;;;;;;6.43;5.93;;;32.00;99.90;;;;;;5016038;28;20467;-58
2023/09/16 12:39:23;;;;;;;6.23;5.83;;;32.20;99.90;;;;;;5027645;28;20475;-60
2023/09/16 12:41:51;;;;;;;6.47;5.93;;;32.10;99.90;;;;;;5018383;28;20472;-59
2023/09/16 12:44:19;;;;;;;6.70;6.20;;;32.30;99.90;;;;;;5017109;28;20869;-59
2023/09/16 12:46:46;;;;;;;6.83;6.33;;;32.60;99.90;;;;;;5012247;28;20463;-59
2023/09/16 12:49:14;;;;;;;5.80;5.40;;;32.40;99.90;;;;;;5012963;28;20552;-59
2023/09/16 12:51:42;;;;;;;6.60;6.10;;;32.40;99.90;;;;;;5017414;28;20991;-60
2023/09/16 12:54:11;;;;;;;6.40;5.90;;;32.70;99.90;;;;;;5031243;28;20465;-59
2023/09/16 12:56:44;;;;;;;5.80;5.40;;;32.30;99.90;;;;;;5023499;28;20861;-59